Time;durP1;ratioP1;P1;durP2;ratioP2;P2;SDS_P1;SDS_P2;PMS_P1;PMS_P2;Temp;Humidity;BMP_temperature;BMP_pressure;BME280_temperature;BME280_humidity;BME280_pressure;Samples;Min_cycle;Max_cycle;Signal;HPM_P1;HPM_P2
2021/05/10 00:00:32;;;;;;;7.17;3.23;;;19.70;99.90;;;;;;5029812;28;20208;-76
2021/05/10 00:02:59;;;;;;;11.00;2.77;;;19.70;99.90;;;;;;5032471;28;20176;-75
2021/05/10 00:05:27;;;;;;;3.93;2.43;;;19.70;99.90;;;;;;5032968;28;20184;-77
2021/05/10 00:07:54;;;;;;;8.20;2.53;;;19.90;99.90;;;;;;5032122;28;20595;-77
2021/05/10 00:10:22;;;;;;;4.47;2.47;;;19.90;99.90;;;;;;5031936;28;20196;-76
2021/05/10 00:12:50;;;;;;;4.70;2.70;;;20.10;99.90;;;;;;5030457;28;20238;-80
2021/05/10 00:15:17;;;;;;;5.37;2.67;;;20.20;99.90;;;;;;5030250;28;20234;-77
2021/05/10 00:17:45;;;;;;;7.37;2.73;;;20.30;99.90;;;;;;5030452;28;20242;-75
2021/05/10 00:20:12;;;;;;;5.67;2.30;;;20.30;99.90;;;;;;5030401;28;20188;-79
2021/05/10 00:22:40;;;;;;;3.80;1.97;;;20.30;99.90;;;;;;5032012;28;20189;-79
2021/05/10 00:25:08;;;;;;;6.90;2.20;;;20.40;99.90;;;;;;5032338;28;20183;-75
2021/05/10 00:27:35;;;;;;;5.63;2.00;;;20.60;99.90;;;;;;5031302;28;20219;-76
2021/05/10 00:30:03;;;;;;;5.67;2.40;;;20.60;99.90;;;;;;5031934;28;20173;-77
2021/05/10 00:32:31;;;;;;;9.43;2.63;;;20.70;99.90;;;;;;5031310;28;20271;-74
2021/05/10 00:34:58;;;;;;;7.90;2.70;;;20.80;99.90;;;;;;5031224;28;20173;-78
2021/05/10 00:37:25;;;;;;;4.23;2.57;;;20.70;99.90;;;;;;5032767;28;20177;-75
2021/05/10 00:39:52;;;;;;;3.07;1.90;;;20.70;99.90;;;;;;5022476;28;20217;-75
2021/05/10 00:42:20;;;;;;;5.87;1.93;;;20.80;99.90;;;;;;5018998;28;20206;-74
2021/05/10 00:44:47;;;;;;;2.87;1.80;;;20.80;99.90;;;;;;5032164;28;20245;-77
2021/05/10 00:47:15;;;;;;;3.63;2.40;;;20.90;99.90;;;;;;5032196;28;20270;-77
2021/05/10 00:49:43;;;;;;;6.70;1.87;;;21.10;99.90;;;;;;5031225;28;20306;-75
2021/05/10 00:52:10;;;;;;;4.00;1.93;;;21.20;99.90;;;;;;5031543;28;20504;-74
2021/05/10 00:54:37;;;;;;;3.73;1.60;;;21.10;99.90;;;;;;5032321;28;20195;-76
2021/05/10 00:57:05;;;;;;;5.33;1.77;;;21.30;99.90;;;;;;5031697;28;20193;-76
2021/05/10 00:59:33;;;;;;;6.27;1.70;;;21.40;99.90;;;;;;5031863;28;20177;-78
2021/05/10 01:02:00;;;;;;;2.77;1.27;;;21.60;99.90;;;;;;5030612;28;20173;-79
2021/05/10 01:04:28;;;;;;;1.77;1.13;;;21.80;99.90;;;;;;5031618;28;20179;-78
2021/05/10 01:06:55;;;;;;;3.17;1.37;;;21.80;99.90;;;;;;5031268;28;20183;-78
2021/05/10 01:09:23;;;;;;;2.33;1.30;;;21.90;99.90;;;;;;5031734;28;20192;-78
2021/05/10 01:11:51;;;;;;;5.00;1.60;;;22.00;99.90;;;;;;5031748;28;20679;-77
2021/05/10 01:14:18;;;;;;;3.23;1.23;;;22.20;99.90;;;;;;5032082;28;20181;-79
2021/05/10 01:16:46;;;;;;;7.57;1.33;;;22.50;99.90;;;;;;5034466;28;20181;-78
2021/05/10 01:19:16;;;;;;;2.10;1.00;;;22.60;99.90;;;;;;5031645;28;20307;-78
2021/05/10 01:21:46;;;;;;;2.80;0.90;;;22.60;99.90;;;;;;5035228;28;20177;-76
2021/05/10 01:24:14;;;;;;;2.33;1.10;;;22.60;99.90;;;;;;5036023;28;20531;-77
2021/05/10 01:26:41;;;;;;;5.30;1.13;;;22.80;99.60;;;;;;5050481;28;20639;-80
2021/05/10 01:29:09;;;;;;;1.73;0.80;;;22.90;99.30;;;;;;5026748;28;20176;-76
2021/05/10 01:31:37;;;;;;;2.50;1.33;;;22.90;99.00;;;;;;5015316;28;20294;-76
2021/05/10 01:34:04;;;;;;;1.57;1.00;;;23.10;98.50;;;;;;5030525;28;20173;-77
2021/05/10 01:36:32;;;;;;;2.03;0.90;;;23.10;97.40;;;;;;5033180;28;20181;-75
2021/05/10 01:38:59;;;;;;;1.93;1.10;;;23.30;97.40;;;;;;5035839;28;20234;-77
2021/05/10 01:41:27;;;;;;;1.13;0.90;;;23.30;96.70;;;;;;5035444;28;20238;-76
2021/05/10 01:43:54;;;;;;;1.70;0.90;;;23.20;96.20;;;;;;5034889;28;20267;-72
2021/05/10 01:46:21;;;;;;;4.93;1.17;;;23.30;96.40;;;;;;5035358;28;20620;-77
2021/05/10 01:48:49;;;;;;;6.47;1.10;;;23.50;96.00;;;;;;5032879;28;20318;-75
2021/05/10 01:51:16;;;;;;;1.80;0.90;;;23.50;95.90;;;;;;5031873;28;21229;-77
2021/05/10 01:53:47;;;;;;;2.23;1.07;;;23.70;95.60;;;;;;5033199;28;20546;-76
2021/05/10 01:56:14;;;;;;;1.33;0.90;;;23.80;95.10;;;;;;5034703;28;20176;-80
2021/05/10 01:58:41;;;;;;;5.90;1.47;;;23.80;94.90;;;;;;5034877;28;20247;-75
2021/05/10 02:01:09;;;;;;;2.07;1.33;;;23.90;95.00;;;;;;5034805;28;20188;-76
2021/05/10 02:03:37;;;;;;;1.63;1.00;;;24.00;94.40;;;;;;5035099;28;20176;-75
2021/05/10 02:06:04;;;;;;;1.80;1.00;;;24.10;94.30;;;;;;5033070;28;20264;-75
2021/05/10 02:08:35;;;;;;;3.20;0.90;;;24.30;93.70;;;;;;5034513;28;20181;-71
2021/05/10 02:11:02;;;;;;;2.63;1.00;;;24.30;93.50;;;;;;5022648;28;20263;-79
2021/05/10 02:13:30;;;;;;;3.70;1.07;;;24.40;93.70;;;;;;5030511;28;20189;-79
2021/05/10 02:16:00;;;;;;;3.00;0.80;;;24.70;93.80;;;;;;5033443;28;20181;-76
2021/05/10 02:18:30;;;;;;;2.27;0.93;;;24.60;93.20;;;;;;5032930;28;20185;-74
2021/05/10 02:20:58;;;;;;;2.20;0.97;;;24.60;92.10;;;;;;5033468;28;20184;-76
2021/05/10 02:23:30;;;;;;;3.13;1.00;;;24.50;92.40;;;;;;5034124;28;20577;-77
2021/05/10 02:26:03;;;;;;;3.20;0.90;;;24.70;93.10;;;;;;5034376;28;20172;-78
2021/05/10 02:28:32;;;;;;;1.90;1.17;;;24.90;92.20;;;;;;5032810;28;20219;-74
2021/05/10 02:31:01;;;;;;;2.60;0.93;;;24.90;91.60;;;;;;5032726;28;20268;-76
2021/05/10 02:33:31;;;;;;;4.07;0.90;;;25.00;91.30;;;;;;5017915;28;20201;-76
2021/05/10 02:35:59;;;;;;;4.00;0.93;;;25.00;90.90;;;;;;5032545;28;20584;-77
2021/05/10 02:38:27;;;;;;;1.50;0.83;;;24.90;90.90;;;;;;5033768;28;20552;-75
2021/05/10 02:40:54;;;;;;;1.93;0.90;;;24.90;90.80;;;;;;5033608;28;20643;-76
2021/05/10 02:43:24;;;;;;;0.93;0.70;;;24.90;91.20;;;;;;5032910;28;20288;-76
2021/05/10 02:45:52;;;;;;;1.03;0.80;;;25.20;90.50;;;;;;5033953;28;20189;-78
2021/05/10 02:48:20;;;;;;;1.53;0.73;;;25.40;90.40;;;;;;5033679;28;20590;-78
2021/05/10 02:50:48;;;;;;;4.00;0.80;;;25.60;89.90;;;;;;5033437;28;20189;-77
2021/05/10 02:53:15;;;;;;;2.57;0.70;;;25.60;89.20;;;;;;5032509;28;20284;-81
2021/05/10 02:55:43;;;;;;;1.47;0.90;;;25.40;89.10;;;;;;5033414;28;20196;-78
2021/05/10 02:58:10;;;;;;;1.17;0.60;;;25.10;90.00;;;;;;5032641;28;20245;-81
2021/05/10 03:00:37;;;;;;;3.00;1.03;;;25.10;90.00;;;;;;5033629;28;20177;-81
2021/05/10 03:03:05;;;;;;;2.73;0.90;;;25.50;90.00;;;;;;5033565;28;20191;-74
2021/05/10 03:05:32;;;;;;;2.57;0.80;;;25.30;89.30;;;;;;5033157;28;20181;-81
2021/05/10 03:08:01;;;;;;;3.87;1.00;;;25.50;90.00;;;;;;5027910;28;20276;-78
2021/05/10 03:10:29;;;;;;;1.47;0.80;;;25.60;89.10;;;;;;5032642;28;20188;-76
2021/05/10 03:12:56;;;;;;;3.10;1.03;;;25.70;90.10;;;;;;5027942;28;20220;-74
2021/05/10 03:15:24;;;;;;;1.10;0.97;;;26.10;89.50;;;;;;5033174;28;20181;-74
2021/05/10 03:17:52;;;;;;;3.47;0.90;;;26.00;87.90;;;;;;5032949;28;20283;-76
2021/05/10 03:20:22;;;;;;;1.90;0.97;;;25.90;87.90;;;;;;5018909;28;20259;-76
2021/05/10 03:22:52;;;;;;;2.97;0.83;;;26.20;87.30;;;;;;5029840;28;20191;-79
2021/05/10 03:25:22;;;;;;;2.93;0.90;;;26.60;87.20;;;;;;5030943;28;20193;-78
2021/05/10 03:27:50;;;;;;;1.30;0.80;;;26.60;86.60;;;;;;5029490;28;20176;-75
2021/05/10 03:30:20;;;;;;;4.13;1.20;;;26.20;87.30;;;;;;5031534;28;20655;-76
2021/05/10 03:32:48;;;;;;;5.57;1.13;;;25.50;88.90;;;;;;5029455;28;20679;-75
2021/05/10 03:35:16;;;;;;;2.40;1.10;;;25.00;90.50;;;;;;5031777;28;20173;-76
2021/05/10 03:37:44;;;;;;;6.63;1.17;;;24.60;90.90;;;;;;5032350;28;20231;-75
2021/05/10 03:40:14;;;;;;;5.40;0.80;;;24.20;91.60;;;;;;5031924;28;20173;-75
2021/05/10 03:42:43;;;;;;;1.10;0.90;;;24.00;91.90;;;;;;5032456;28;20662;-72
2021/05/10 03:45:12;;;;;;;3.37;1.10;;;24.10;91.40;;;;;;5031272;28;20183;-73
2021/05/10 03:47:40;;;;;;;2.47;0.93;;;24.10;91.70;;;;;;5031756;28;20180;-74
2021/05/10 03:50:16;;;;;;;1.63;1.00;;;24.00;91.90;;;;;;5032905;28;20242;-76
2021/05/10 03:52:44;;;;;;;2.17;0.73;;;24.60;91.30;;;;;;5030683;28;20570;-73
2021/05/10 03:55:16;;;;;;;2.03;1.03;;;24.60;90.90;;;;;;5029965;28;20223;-73
2021/05/10 03:57:44;;;;;;;3.47;0.80;;;24.90;90.70;;;;;;5031747;28;20219;-75
2021/05/10 04:00:14;;;;;;;2.47;0.90;;;24.90;89.70;;;;;;5031680;28;20229;-72
2021/05/10 04:02:42;;;;;;;1.07;0.70;;;24.70;89.50;;;;;;5031907;28;20192;-74
2021/05/10 04:15:52;;;;;;;0.80;0.50;;;27.10;78.30;;;;;;5029767;28;20264;-75
2021/05/10 04:18:20;;;;;;;3.20;0.67;;;27.20;76.70;;;;;;5029713;28;20189;-79
2021/05/10 04:20:49;;;;;;;1.23;0.40;;;27.10;75.80;;;;;;5030172;28;20192;-76
2021/05/10 04:23:17;;;;;;;0.53;0.50;;;27.00;75.90;;;;;;5030607;28;20180;-78
2021/05/10 04:25:49;;;;;;;0.90;0.40;;;26.50;77.20;;;;;;5028830;28;20284;-76
2021/05/10 04:28:18;;;;;;;1.53;0.50;;;26.90;77.00;;;;;;5031955;28;20242;-75
2021/05/10 04:30:47;;;;;;;2.17;0.80;;;27.40;75.20;;;;;;5031669;28;20323;-78
2021/05/10 04:33:14;;;;;;;0.97;0.50;;;27.80;74.90;;;;;;5032445;28;20277;-74
2021/05/10 04:35:42;;;;;;;1.37;0.50;;;28.10;73.00;;;;;;5031832;28;20705;-76
2021/05/10 04:38:12;;;;;;;1.87;0.70;;;27.90;73.00;;;;;;5029273;28;20673;-75
2021/05/10 04:40:40;;;;;;;3.80;0.80;;;27.50;73.40;;;;;;5031116;28;20188;-80
2021/05/10 04:43:08;;;;;;;1.07;0.70;;;27.10;75.00;;;;;;5026915;28;20184;-73
2021/05/10 04:45:36;;;;;;;1.40;0.60;;;27.30;73.70;;;;;;5032059;28;20231;-75
2021/05/10 04:48:04;;;;;;;3.47;0.70;;;26.50;74.80;;;;;;5036240;28;20270;-75
2021/05/10 04:50:32;;;;;;;0.50;0.50;;;26.00;76.20;;;;;;5038977;28;20522;-75
2021/05/10 04:53:00;;;;;;;1.13;0.60;;;25.80;75.60;;;;;;5034865;28;20212;-78
2021/05/10 04:55:27;;;;;;;0.83;0.67;;;25.80;75.00;;;;;;5035373;28;20649;-78
2021/05/10 04:57:55;;;;;;;0.80;0.53;;;26.30;73.40;;;;;;5033923;28;20217;-73
2021/05/10 05:00:22;;;;;;;4.93;0.70;;;26.60;71.90;;;;;;5034487;28;20180;-74
2021/05/10 05:02:50;;;;;;;0.83;0.40;;;27.00;71.40;;;;;;5034784;28;20181;-79
2021/05/10 05:05:17;;;;;;;1.60;0.50;;;27.40;70.30;;;;;;5035073;28;20175;-77
2021/05/10 05:07:44;;;;;;;0.60;0.50;;;27.50;69.80;;;;;;5035210;28;20176;-77
2021/05/10 05:10:12;;;;;;;1.17;0.60;;;27.70;69.30;;;;;;5035511;28;20185;-73
2021/05/10 05:12:39;;;;;;;0.80;0.43;;;27.80;68.70;;;;;;5034433;28;20220;-79
2021/05/10 05:15:08;;;;;;;0.90;0.40;;;28.10;69.00;;;;;;5034529;28;20192;-75
2021/05/10 05:17:37;;;;;;;0.77;0.70;;;27.70;68.50;;;;;;5034301;28;20181;-75
2021/05/10 05:20:06;;;;;;;0.90;0.50;;;27.60;69.10;;;;;;5033826;28;20270;-73
2021/05/10 05:22:34;;;;;;;1.47;0.50;;;27.90;68.70;;;;;;5035114;28;20184;-75
2021/05/10 05:25:05;;;;;;;0.60;0.40;;;27.60;66.90;;;;;;5036173;28;20223;-73
2021/05/10 05:27:33;;;;;;;1.23;0.70;;;27.80;67.90;;;;;;5021847;28;20188;-73
2021/05/10 05:30:00;;;;;;;0.60;0.50;;;27.90;67.00;;;;;;5035131;28;20639;-75
2021/05/10 05:32:28;;;;;;;0.50;0.50;;;27.80;66.60;;;;;;5035743;28;20243;-77
2021/05/10 05:34:55;;;;;;;3.17;0.47;;;27.60;66.50;;;;;;5034924;28;20294;-78
2021/05/10 05:37:23;;;;;;;2.10;0.80;;;26.80;66.70;;;;;;5036013;28;20268;-75
2021/05/10 05:39:50;;;;;;;1.20;0.60;;;26.40;68.80;;;;;;5036176;28;20185;-71
2021/05/10 05:42:19;;;;;;;0.90;0.57;;;26.80;68.70;;;;;;5035306;28;20184;-73
2021/05/10 05:44:53;;;;;;;2.33;0.60;;;27.30;67.60;;;;;;5035912;28;20516;-71
2021/05/10 05:47:28;;;;;;;4.17;0.60;;;27.40;67.00;;;;;;5034924;28;20215;-74
2021/05/10 05:49:56;;;;;;;1.23;0.60;;;27.60;67.10;;;;;;5034803;28;20188;-75
2021/05/10 05:52:23;;;;;;;0.70;0.57;;;27.80;66.60;;;;;;5034153;28;20580;-74
2021/05/10 05:54:52;;;;;;;3.13;0.80;;;28.20;66.30;;;;;;5022295;28;20212;-76
2021/05/10 05:57:20;;;;;;;0.93;0.53;;;28.20;65.60;;;;;;5035146;28;20180;-81
2021/05/10 05:59:48;;;;;;;1.83;0.70;;;28.00;66.00;;;;;;5033848;28;20188;-74
2021/05/10 06:02:15;;;;;;;2.00;0.47;;;27.90;65.50;;;;;;5035183;28;20239;-77
2021/05/10 06:04:42;;;;;;;0.60;0.50;;;27.90;66.20;;;;;;5034427;28;20204;-75
2021/05/10 06:07:10;;;;;;;0.70;0.40;;;26.90;66.60;;;;;;5034966;28;20187;-75
2021/05/10 06:09:37;;;;;;;0.50;0.50;;;26.50;67.70;;;;;;5032902;28;20200;-75
2021/05/10 06:12:05;;;;;;;1.63;0.80;;;26.20;69.00;;;;;;5033695;28;20722;-73
2021/05/10 06:14:32;;;;;;;3.33;1.10;;;25.70;69.10;;;;;;5031465;28;20605;-74
2021/05/10 06:16:59;;;;;;;1.60;0.80;;;25.40;70.80;;;;;;5029830;28;20219;-74
2021/05/10 06:19:27;;;;;;;1.67;0.57;;;25.10;72.10;;;;;;5031195;28;20188;-74
2021/05/10 06:21:55;;;;;;;0.73;0.70;;;24.90;72.40;;;;;;5033701;28;20184;-75
2021/05/10 06:24:22;;;;;;;1.50;0.70;;;24.60;72.70;;;;;;5032291;28;20242;-76
2021/05/10 06:26:50;;;;;;;0.87;0.60;;;24.50;73.20;;;;;;5030948;28;20184;-76
2021/05/10 06:29:17;;;;;;;0.97;0.63;;;24.30;73.20;;;;;;5025341;28;20789;-76
2021/05/10 06:31:45;;;;;;;1.07;0.70;;;24.20;74.30;;;;;;5032500;28;20290;-74
2021/05/10 06:34:12;;;;;;;0.90;0.70;;;24.00;75.00;;;;;;5029527;28;20279;-76
2021/05/10 06:36:39;;;;;;;0.83;0.60;;;23.80;75.80;;;;;;5031325;28;20188;-74
2021/05/10 06:39:07;;;;;;;2.13;0.60;;;23.60;76.30;;;;;;5032132;28;20200;-76
2021/05/10 06:41:34;;;;;;;1.80;0.87;;;23.50;76.50;;;;;;5032884;28;20184;-77
2021/05/10 06:44:01;;;;;;;2.30;0.67;;;23.40;76.30;;;;;;5033195;28;20199;-77
2021/05/10 06:46:29;;;;;;;2.30;0.77;;;23.30;77.00;;;;;;5033348;28;20195;-76
2021/05/10 06:48:56;;;;;;;2.27;0.80;;;23.20;78.10;;;;;;5031857;28;20197;-77
2021/05/10 06:51:24;;;;;;;1.07;0.70;;;23.10;79.10;;;;;;5033534;28;20555;-76
2021/05/10 06:53:51;;;;;;;1.93;0.80;;;23.00;79.80;;;;;;5032902;28;20196;-77
2021/05/10 06:56:18;;;;;;;3.23;0.77;;;22.90;80.50;;;;;;5032832;28;20635;-75
2021/05/10 06:58:46;;;;;;;1.00;0.77;;;22.80;80.70;;;;;;5033381;28;20189;-75
2021/05/10 07:01:13;;;;;;;1.70;0.77;;;22.70;81.80;;;;;;5032866;28;20181;-76
2021/05/10 07:03:41;;;;;;;3.77;0.73;;;22.50;82.60;;;;;;5033051;28;20548;-76
2021/05/10 07:06:08;;;;;;;1.77;0.80;;;22.40;83.20;;;;;;5032208;28;20265;-76
2021/05/10 07:08:36;;;;;;;1.43;0.60;;;22.30;84.10;;;;;;5031128;28;20215;-76
2021/05/10 07:11:03;;;;;;;2.80;0.77;;;22.20;84.80;;;;;;5031111;28;20601;-75
2021/05/10 07:13:30;;;;;;;2.67;0.80;;;22.00;85.40;;;;;;5032249;28;20274;-77
2021/05/10 07:15:58;;;;;;;4.63;0.87;;;21.90;85.70;;;;;;5031198;28;20549;-75
2021/05/10 07:18:25;;;;;;;2.90;0.80;;;21.80;86.50;;;;;;5030525;28;20575;-76
2021/05/10 07:20:53;;;;;;;1.93;0.97;;;21.70;87.20;;;;;;5030712;28;20639;-75
2021/05/10 07:23:21;;;;;;;2.60;1.00;;;21.60;87.90;;;;;;5032492;28;20713;-77
2021/05/10 07:25:50;;;;;;;1.97;1.10;;;21.50;88.30;;;;;;5031447;28;20189;-75
2021/05/10 07:28:19;;;;;;;2.40;0.93;;;21.30;88.00;;;;;;5030341;28;20235;-76
2021/05/10 07:30:47;;;;;;;1.47;0.97;;;21.20;89.20;;;;;;5031564;28;20647;-75
2021/05/10 07:33:15;;;;;;;2.80;1.30;;;21.20;90.30;;;;;;5032139;28;20216;-77
2021/05/10 07:35:43;;;;;;;1.47;1.00;;;21.10;90.70;;;;;;5031534;28;20188;-78
2021/05/10 07:38:11;;;;;;;2.40;1.13;;;21.00;90.80;;;;;;5031579;28;20839;-74
2021/05/10 07:40:39;;;;;;;2.80;1.10;;;21.00;91.20;;;;;;5025097;28;20247;-77
2021/05/10 07:43:06;;;;;;;1.57;0.93;;;20.90;90.90;;;;;;5031986;28;20548;-76
2021/05/10 07:45:34;;;;;;;2.60;1.30;;;20.90;91.70;;;;;;5031973;28;20670;-77
2021/05/10 07:48:02;;;;;;;2.87;1.27;;;20.80;92.00;;;;;;5031069;28;20195;-77
2021/05/10 07:50:30;;;;;;;3.73;1.40;;;20.80;92.30;;;;;;5031183;28;20665;-76
2021/05/10 07:52:58;;;;;;;4.93;1.20;;;20.80;92.60;;;;;;5026333;28;20243;-77
2021/05/10 07:55:26;;;;;;;7.73;1.50;;;20.70;92.90;;;;;;5030705;28;20188;-74
2021/05/10 07:57:54;;;;;;;1.60;1.33;;;20.60;93.30;;;;;;5030347;28;20185;-77
2021/05/10 08:00:44;;;;;;;5.03;1.63;;;20.60;93.50;;;;;;5031458;28;20196;-76
2021/05/10 08:03:16;;;;;;;4.73;1.60;;;20.50;93.30;;;;;;5016340;28;20243;-77
2021/05/10 08:05:43;;;;;;;8.87;2.10;;;20.50;94.00;;;;;;5032306;28;20196;-76
2021/05/10 08:08:13;;;;;;;7.10;2.23;;;20.40;94.40;;;;;;5032712;28;20173;-76
2021/05/10 08:10:42;;;;;;;9.03;2.60;;;20.30;95.40;;;;;;5032901;28;20181;-77
2021/05/10 08:13:09;;;;;;;10.07;2.40;;;20.30;95.80;;;;;;5031236;28;20212;-76
2021/05/10 08:15:37;;;;;;;9.53;2.80;;;20.20;96.10;;;;;;5032426;28;20184;-77
2021/05/10 08:18:05;;;;;;;10.80;2.80;;;20.10;96.40;;;;;;5031067;28;20861;-77
2021/05/10 08:20:33;;;;;;;6.27;2.33;;;20.10;97.00;;;;;;5029653;28;21028;-77
2021/05/10 08:23:00;;;;;;;8.97;2.57;;;20.00;97.50;;;;;;5028364;28;20186;-77
2021/05/10 08:25:28;;;;;;;10.27;2.80;;;19.90;98.10;;;;;;5028592;28;20242;-76
2021/05/10 08:27:55;;;;;;;9.37;6.07;;;19.80;98.80;;;;;;5031419;28;20177;-77
2021/05/10 08:30:23;;;;;;;10.43;6.13;;;19.80;99.60;;;;;;5031798;28;20651;-76
2021/05/10 08:32:51;;;;;;;15.97;9.37;;;19.70;99.90;;;;;;5031132;28;20227;-77
2021/05/10 08:35:21;;;;;;;11.97;4.60;;;19.70;99.90;;;;;;5029901;28;20200;-75
2021/05/10 08:37:48;;;;;;;9.17;4.33;;;19.60;99.90;;;;;;5031755;28;20885;-75
2021/05/10 08:40:15;;;;;;;14.93;3.80;;;19.60;99.90;;;;;;5031003;28;20631;-77
2021/05/10 08:42:45;;;;;;;6.80;3.20;;;19.60;99.90;;;;;;5028972;28;20753;-77
2021/05/10 08:45:21;;;;;;;16.00;3.23;;;19.50;99.90;;;;;;5031452;28;20523;-77
2021/05/10 08:47:49;;;;;;;10.40;3.53;;;19.50;99.90;;;;;;5029961;28;20552;-77
2021/05/10 08:50:17;;;;;;;14.63;4.20;;;19.40;99.90;;;;;;5032012;28;20212;-77
2021/05/10 08:52:45;;;;;;;11.13;3.93;;;19.40;99.90;;;;;;5032539;28;20213;-77
2021/05/10 08:55:17;;;;;;;13.87;3.97;;;19.30;99.90;;;;;;5031435;28;20250;-74
2021/05/10 08:57:46;;;;;;;12.57;4.00;;;19.30;99.90;;;;;;5031109;28;20205;-76
2021/05/10 09:00:16;;;;;;;21.67;5.20;;;19.20;99.90;;;;;;5022379;28;20595;-77
2021/05/10 09:02:43;;;;;;;15.63;5.40;;;19.20;99.90;;;;;;5027435;28;20216;-77
2021/05/10 09:05:13;;;;;;;15.60;3.93;;;19.20;99.90;;;;;;5029560;28;20539;-77
2021/05/10 09:07:42;;;;;;;22.73;5.03;;;19.10;99.90;;;;;;5031206;28;20576;-77
2021/05/10 09:10:11;;;;;;;15.53;5.90;;;19.10;99.90;;;;;;5032095;28;20181;-76
2021/05/10 09:12:47;;;;;;;25.10;5.90;;;19.00;99.90;;;;;;5031905;28;20204;-76
2021/05/10 09:15:24;;;;;;;13.73;4.60;;;19.00;99.90;;;;;;5031297;28;20172;-75
2021/05/10 09:18:04;;;;;;;10.00;4.80;;;19.00;99.90;;;;;;5032279;28;20279;-78
2021/05/10 09:20:40;;;;;;;13.63;5.47;;;18.90;99.90;;;;;;5031455;28;20181;-77
2021/05/10 09:23:13;;;;;;;16.93;6.00;;;18.90;99.90;;;;;;5032196;28;20223;-76
2021/05/10 09:25:42;;;;;;;18.40;7.17;;;18.80;99.90;;;;;;5032141;28;20697;-76
2021/05/10 09:28:36;;;;;;;15.57;6.80;;;18.80;99.90;;;;;;5031884;28;20631;-74
2021/05/10 09:31:06;;;;;;;18.20;6.40;;;18.70;99.90;;;;;;5030354;28;20220;-75
2021/05/10 09:33:35;;;;;;;17.47;6.23;;;18.70;99.90;;;;;;5029766;28;20703;-78
2021/05/10 09:36:06;;;;;;;14.77;6.47;;;18.70;99.90;;;;;;5033796;28;20291;-78
2021/05/10 09:38:36;;;;;;;17.77;5.47;;;18.70;99.90;;;;;;5030886;28;20189;-78
2021/05/10 09:41:09;;;;;;;14.07;5.10;;;18.60;99.90;;;;;;5033862;28;20184;-78
2021/05/10 09:43:39;;;;;;;17.37;5.83;;;18.60;99.90;;;;;;5035460;28;20199;-74
2021/05/10 09:46:07;;;;;;;17.07;6.30;;;18.60;99.90;;;;;;5033636;28;20180;-75
2021/05/10 09:48:37;;;;;;;28.90;6.07;;;18.60;99.90;;;;;;5033853;28;20188;-78
2021/05/10 09:51:16;;;;;;;17.90;5.50;;;18.40;99.90;;;;;;5035653;28;20722;-76
2021/05/10 09:53:53;;;;;;;15.10;5.63;;;18.40;99.90;;;;;;5034253;28;20246;-76
2021/05/10 09:58:54;;;;;;;13.60;4.70;;;18.30;99.90;;;;;;5035778;28;20184;-75
2021/05/10 10:01:23;;;;;;;14.73;5.03;;;18.20;99.90;;;;;;5034503;28;20187;-78
2021/05/10 10:04:01;;;;;;;14.47;4.83;;;18.20;99.90;;;;;;5034887;28;20189;-75
2021/05/10 10:06:28;;;;;;;12.90;4.90;;;18.20;99.90;;;;;;5035250;28;20643;-75
2021/05/10 10:08:57;;;;;;;14.20;5.00;;;18.10;99.90;;;;;;5035060;28;20271;-75
2021/05/10 10:11:26;;;;;;;11.43;4.70;;;18.10;99.90;;;;;;5035633;28;20176;-74
2021/05/10 10:13:58;;;;;;;10.47;4.43;;;18.00;99.90;;;;;;5035269;28;20192;-79
2021/05/10 10:16:27;;;;;;;12.67;4.30;;;18.00;99.90;;;;;;5032845;28;20639;-77
2021/05/10 10:18:58;;;;;;;13.33;4.23;;;18.00;99.90;;;;;;5034224;28;20207;-73
2021/05/10 10:21:27;;;;;;;16.47;5.50;;;18.00;99.90;;;;;;5034259;28;20237;-71
2021/05/10 10:23:57;;;;;;;10.93;4.20;;;18.00;99.90;;;;;;5034488;28;20196;-73
2021/05/10 10:26:25;;;;;;;12.40;4.00;;;18.00;99.90;;;;;;5023035;28;20279;-76
2021/05/10 10:28:53;;;;;;;15.10;4.17;;;18.00;99.90;;;;;;5027929;28;20188;-78
2021/05/10 10:31:34;;;;;;;31.10;7.37;;;18.00;99.90;;;;;;5033083;28;20228;-76
2021/05/10 10:34:15;;;;;;;15.13;4.70;;;17.90;99.90;;;;;;5033502;28;20185;-77
2021/05/10 10:36:52;;;;;;;17.90;5.27;;;17.90;99.90;;;;;;5032470;28;20541;-78
2021/05/10 10:39:24;;;;;;;20.57;5.23;;;17.80;99.90;;;;;;5034541;28;20191;-76
2021/05/10 10:41:56;;;;;;;21.33;5.07;;;17.90;99.90;;;;;;5034120;28;20184;-80
2021/05/10 10:44:46;;;;;;;34.07;11.03;;;17.90;99.90;;;;;;5035072;28;20511;-78
2021/05/10 10:47:36;;;;;;;40.33;12.03;;;17.80;99.90;;;;;;5033318;28;20181;-77
2021/05/10 10:50:05;;;;;;;26.30;9.70;;;17.90;99.90;;;;;;5033425;28;20594;-77
2021/05/10 10:52:45;;;;;;;24.80;7.23;;;17.80;99.90;;;;;;5032061;28;20212;-78
2021/05/10 10:55:23;;;;;;;32.50;9.03;;;17.80;99.90;;;;;;5027284;28;20187;-74
2021/05/10 10:57:52;;;;;;;36.67;8.30;;;17.80;99.90;;;;;;5034104;28;20188;-77
2021/05/10 11:00:21;;;;;;;36.37;7.90;;;17.70;99.90;;;;;;5034082;28;20189;-78
2021/05/10 11:02:55;;;;;;;34.13;8.33;;;17.70;99.90;;;;;;5033451;28;20269;-75
2021/05/10 11:05:29;;;;;;;19.03;5.10;;;17.70;99.90;;;;;;5034125;28;20185;-80
2021/05/10 11:08:04;;;;;;;24.17;5.40;;;17.70;99.90;;;;;;5034428;28;20185;-78
2021/05/10 11:10:51;;;;;;;15.70;5.37;;;17.70;99.90;;;;;;5033174;28;20188;-79
2021/05/10 11:13:30;;;;;;;12.83;4.00;;;17.80;99.90;;;;;;5034458;28;20276;-78
2021/05/10 11:16:08;;;;;;;12.63;3.27;;;17.80;99.90;;;;;;5032456;28;20188;-78
2021/05/10 11:18:51;;;;;;;5.90;2.70;;;17.90;99.90;;;;;;5030975;28;20192;-73
2021/05/10 11:21:27;;;;;;;6.00;3.07;;;17.90;99.90;;;;;;5025730;28;20523;-78
2021/05/10 11:24:09;;;;;;;9.17;2.60;;;17.90;99.90;;;;;;5032704;28;20193;-77
2021/05/10 11:26:55;;;;;;;6.90;2.13;;;18.00;99.90;;;;;;5034517;28;20185;-78
2021/05/10 11:29:26;;;;;;;6.93;2.50;;;18.00;99.90;;;;;;5029671;28;20220;-76
2021/05/10 11:31:58;;;;;;;10.67;2.50;;;18.00;99.90;;;;;;5034608;28;20315;-77
2021/05/10 11:34:36;;;;;;;9.53;2.30;;;18.00;99.90;;;;;;5033562;28;20185;-78
2021/05/10 11:37:05;;;;;;;4.97;2.20;;;18.00;99.90;;;;;;5034855;28;20602;-78
2021/05/10 11:39:35;;;;;;;8.40;2.37;;;18.00;99.90;;;;;;5031625;28;20215;-79
2021/05/10 11:42:05;;;;;;;9.73;2.73;;;18.00;99.90;;;;;;5032897;28;20185;-77
2021/05/10 11:44:44;;;;;;;7.90;2.07;;;17.90;99.90;;;;;;5033174;28;20184;-77
2021/05/10 11:47:16;;;;;;;9.50;2.27;;;17.80;99.90;;;;;;5032273;28;20203;-77
2021/05/10 11:49:46;;;;;;;3.93;2.20;;;17.80;99.90;;;;;;5033130;28;20179;-78
2021/05/10 11:52:15;;;;;;;6.67;2.30;;;17.60;99.90;;;;;;5033228;28;20752;-78
2021/05/10 11:54:47;;;;;;;6.60;2.30;;;17.50;99.90;;;;;;5032015;28;20222;-78
2021/05/10 11:57:20;;;;;;;14.43;3.23;;;17.50;99.90;;;;;;5028305;28;20187;-75
2021/05/10 11:59:50;;;;;;;7.80;2.60;;;17.40;99.90;;;;;;5032309;28;20189;-75
2021/05/10 12:02:29;;;;;;;16.67;3.50;;;17.40;99.90;;;;;;5032529;28;20189;-74
2021/05/10 12:05:08;;;;;;;3.93;2.30;;;17.30;99.90;;;;;;5032920;28;20272;-77
2021/05/10 12:07:36;;;;;;;3.90;2.33;;;17.20;99.90;;;;;;5032581;28;20187;-75
2021/05/10 12:10:07;;;;;;;5.27;2.50;;;17.20;99.90;;;;;;5032752;28;20251;-77
2021/05/10 12:12:47;;;;;;;7.43;2.50;;;17.20;99.90;;;;;;5032104;28;20582;-78
2021/05/10 12:15:24;;;;;;;8.30;2.43;;;17.20;99.90;;;;;;5032195;28;20195;-78
2021/05/10 12:18:04;;;;;;;6.10;2.17;;;17.10;99.90;;;;;;5032600;28;20545;-74
2021/05/10 12:20:33;;;;;;;15.43;3.00;;;17.20;99.90;;;;;;5031180;28;20501;-77
2021/05/10 12:23:03;;;;;;;3.87;2.30;;;17.20;99.90;;;;;;5031734;28;20268;-78
2021/05/10 12:25:37;;;;;;;10.87;2.70;;;17.20;99.90;;;;;;5030612;28;20184;-74
2021/05/10 12:28:14;;;;;;;8.33;2.80;;;17.20;99.90;;;;;;5030367;28;20226;-77
2021/05/10 12:33:18;;;;;;;8.23;2.40;;;17.20;99.90;;;;;;5024646;28;20306;-75
2021/05/10 12:35:49;;;;;;;5.10;2.03;;;17.20;99.90;;;;;;5032065;28;20286;-75
2021/05/10 12:38:28;;;;;;;5.57;2.10;;;17.20;99.90;;;;;;5031721;28;20188;-75
2021/05/10 12:40:56;;;;;;;11.03;2.57;;;17.20;99.90;;;;;;5032296;28;20184;-78
2021/05/10 12:43:25;;;;;;;7.27;2.17;;;17.10;99.90;;;;;;5032011;28;20199;-77
2021/05/10 12:46:05;;;;;;;8.13;2.30;;;17.10;99.90;;;;;;5030455;28;20685;-77
2021/05/10 12:48:43;;;;;;;9.77;2.50;;;17.20;99.90;;;;;;5029313;28;20211;-78
2021/05/10 12:51:12;;;;;;;4.43;1.73;;;17.10;99.90;;;;;;5030593;28;20222;-77
2021/05/10 12:53:52;;;;;;;8.57;1.80;;;17.20;99.90;;;;;;5029412;28;20224;-77
2021/05/10 12:56:22;;;;;;;8.77;2.47;;;17.20;99.90;;;;;;5017420;28;20184;-77
2021/05/10 12:58:51;;;;;;;8.40;2.70;;;17.20;99.90;;;;;;5032368;28;20572;-77
2021/05/10 13:01:25;;;;;;;6.73;2.70;;;17.20;99.90;;;;;;5032172;28;20721;-77
2021/05/10 13:04:07;;;;;;;17.97;3.87;;;17.20;99.90;;;;;;5032560;28;20192;-76
2021/05/10 13:06:35;;;;;;;6.17;2.33;;;17.20;99.90;;;;;;5030740;28;20212;-78
2021/05/10 13:09:07;;;;;;;7.70;2.43;;;17.20;99.90;;;;;;5033106;28;20188;-78
2021/05/10 13:11:47;;;;;;;10.17;2.60;;;17.20;99.90;;;;;;5034773;28;20180;-79
2021/05/10 13:20:23;;;;;;;14.27;3.17;;;17.10;99.90;;;;;;5032398;28;20654;-77